Sylvan, Minnesota
Current Conditions -  °F | °C
As of 9:53 AM on Wednesday 26 Nov 2014 (Local Time) from KBRD Reporting Station
Overcast Overcast  
Wind Chill:   Ceiling: 1600
Heat Index: 17°   Visibility: 10mi
Dew Point: 11°   Wind: 16mph
Humidity: 77%   Direction: 10°N
Pressure: 30.21"   Gusts: 21mph
Location:  46.4437°N, 94.4479°W
Report Text: KBRD 261553Z AUTO 01014G18KT 10SM BKN016 BKN027 OVC100 M08/M12 A3021 RMK AO2 SLP255 T10831117
Loading
Personal Weather Stations






























Interactive Weather Map New forecast layout! Learn more

10-Day Weather Forecast

Advertisements
Track Severe Weather on mobile